Time;durP1;ratioP1;P1;durP2;ratioP2;P2;SDS_P1;SDS_P2;PMS_P1;PMS_P2;Temp;Humidity;BMP_temperature;BMP_pressure;BME280_temperature;BME280_humidity;BME280_pressure;Samples;Min_cycle;Max_cycle;Signal;HPM_P1;HPM_P2
2023/07/04 00:01:09;;;;;;;17.05;4.35;;;;;;;14.85;85.67;101006.56;4959202;28;20030;-70
2023/07/04 00:03:35;;;;;;;23.77;5.05;;;;;;;14.88;84.92;101010.72;5000657;28;20462;-69
2023/07/04 00:06:01;;;;;;;17.40;4.68;;;;;;;14.87;85.00;101009.06;4972794;28;20520;-78
2023/07/04 00:08:27;;;;;;;23.60;5.28;;;;;;;14.88;85.17;101008.09;4967758;28;20027;-78
2023/07/04 00:10:56;;;;;;;15.90;4.10;;;;;;;14.85;85.04;101011.84;4977892;28;20085;-78
2023/07/04 00:13:22;;;;;;;16.75;4.60;;;;;;;14.83;85.35;101008.50;4974311;28;20592;-78
2023/07/04 00:15:50;;;;;;;17.25;4.60;;;;;;;14.83;85.67;101008.50;4972732;28;20042;-69
2023/07/04 00:18:20;;;;;;;16.08;4.72;;;;;;;14.77;85.90;101002.88;4972605;28;20026;-69
2023/07/04 00:20:46;;;;;;;17.27;5.10;;;;;;;14.79;85.70;101001.78;4981018;28;20018;-77
2023/07/04 00:23:12;;;;;;;18.70;4.97;;;;;;;14.76;85.99;101002.03;4976185;28;20038;-77
2023/07/04 00:25:37;;;;;;;18.05;4.95;;;;;;;14.75;85.83;100997.72;4981985;28;20041;-77
2023/07/04 00:28:05;;;;;;;16.45;5.15;;;;;;;14.74;86.08;100998.69;4991599;28;20022;-77
2023/07/04 00:30:31;;;;;;;18.95;4.75;;;;;;;14.73;86.17;101004.97;4985271;28;20118;-69
2023/07/04 00:32:57;;;;;;;17.38;4.93;;;;;;;14.72;86.44;101003.28;4971554;28;20029;-69
2023/07/04 00:35:22;;;;;;;18.38;4.47;;;;;;;14.69;86.77;101000.91;4978186;28;20050;-78
2023/07/04 00:37:48;;;;;;;21.02;5.00;;;;;;;14.70;86.75;100999.94;4990280;28;20408;-69
2023/07/04 00:40:13;;;;;;;19.30;4.72;;;;;;;14.67;87.06;101002.88;4966603;28;20031;-68
2023/07/04 00:42:41;;;;;;;18.40;5.20;;;;;;;14.66;87.00;101006.50;4973784;28;20114;-76
2023/07/04 00:45:20;;;;;;;17.98;5.15;;;;;;;14.67;87.39;101005.53;4988442;28;20030;-77
2023/07/04 00:47:54;;;;;;;18.73;4.90;;;;;;;14.66;87.29;101006.50;4972240;28;20399;-68
2023/07/04 00:50:24;;;;;;;17.88;5.22;;;;;;;14.65;87.55;101003.00;4990485;28;20023;-77
2023/07/04 00:52:53;;;;;;;21.40;5.28;;;;;;;14.65;87.68;101013.59;4982441;28;20066;-69
2023/07/04 00:55:19;;;;;;;18.63;4.70;;;;;;;14.67;87.87;101000.22;4970508;28;20542;-69
2023/07/04 00:57:47;;;;;;;20.83;5.22;;;;;;;14.67;87.79;101000.22;4970875;28;20030;-68
2023/07/04 01:00:18;;;;;;;16.42;5.15;;;;;;;14.68;87.99;101004.53;4986193;28;20030;-78
2023/07/04 01:02:46;;;;;;;22.90;5.53;;;;;;;14.68;88.50;101004.53;4991282;28;20038;-77
2023/07/04 01:05:23;;;;;;;15.70;5.13;;;;;;;14.69;88.66;101011.50;4985763;28;20031;-68
2023/07/04 01:08:03;;;;;;;19.63;5.07;;;;;;;14.71;88.04;101012.22;4991280;28;20081;-69
2023/07/04 01:10:33;;;;;;;23.10;5.60;;;;;;;14.70;88.04;101008.72;4987667;28;20053;-68
2023/07/04 01:13:00;;;;;;;26.58;4.95;;;;;;;14.70;88.10;101002.59;4970624;28;20031;-68
2023/07/04 01:15:28;;;;;;;19.92;4.70;;;;;;;14.68;88.18;101009.84;4974837;28;20058;-67
2023/07/04 01:17:54;;;;;;;17.13;5.35;;;;;;;14.68;88.32;101004.53;4971777;28;20027;-79
2023/07/04 01:20:19;;;;;;;18.65;4.93;;;;;;;14.63;88.47;101007.59;4978491;28;20533;-71
2023/07/04 01:22:50;;;;;;;21.40;5.45;;;;;;;14.62;88.70;101010.38;4989215;28;20029;-71
2023/07/04 01:25:48;;;;;;;18.15;5.07;;;;;;;14.64;88.99;101019.03;4983724;28;20027;-68
2023/07/04 01:28:17;;;;;;;17.30;4.55;;;;;;;14.60;88.99;101023.75;4985360;28;20049;-78
2023/07/04 01:30:44;;;;;;;19.90;5.07;;;;;;;14.60;89.26;101017.63;4979810;28;20026;-68
2023/07/04 01:33:13;;;;;;;21.63;5.00;;;;;;;14.56;89.77;101021.53;4956443;28;20372;-68
2023/07/04 01:35:39;;;;;;;18.25;4.93;;;;;;;14.56;89.82;101022.38;4968412;28;20077;-69
2023/07/04 01:38:06;;;;;;;20.90;5.80;;;;;;;14.56;90.04;101016.22;4983104;28;20442;-77
2023/07/04 01:40:34;;;;;;;21.95;5.05;;;;;;;14.53;90.20;101020.00;4987469;28;20056;-70
2023/07/04 01:43:00;;;;;;;22.25;6.15;;;;;;;14.53;90.51;101021.78;4990052;28;20609;-69
2023/07/04 01:45:26;;;;;;;23.60;5.75;;;;;;;14.52;90.74;101017.47;4989969;28;20026;-69
2023/07/04 01:47:52;;;;;;;22.48;5.65;;;;;;;14.55;90.76;101022.50;4989438;28;20092;-69
2023/07/04 01:50:18;;;;;;;19.58;5.32;;;;;;;14.55;90.86;101025.16;4967677;28;20038;-70
2023/07/04 01:52:44;;;;;;;19.95;5.78;;;;;;;14.55;90.91;101022.50;4970370;28;20027;-68
2023/07/04 01:55:11;;;;;;;18.05;5.47;;;;;;;14.56;90.99;101024.19;4969422;28;20023;-78
2023/07/04 01:57:44;;;;;;;22.65;5.72;;;;;;;14.55;91.25;101018.03;4983194;28;20042;-77
2023/07/04 02:00:10;;;;;;;23.37;5.57;;;;;;;14.58;91.14;101030.16;5001496;28;20398;-78
2023/07/04 02:02:39;;;;;;;23.42;5.85;;;;;;;14.59;91.07;101030.03;4970281;28;20491;-69
2023/07/04 02:05:05;;;;;;;23.48;5.53;;;;;;;14.62;91.11;101021.81;4970449;28;20027;-69
2023/07/04 02:07:31;;;;;;;21.65;5.93;;;;;;;14.64;91.14;101008.44;4961562;28;20042;-77
2023/07/04 02:09:56;;;;;;;20.55;5.70;;;;;;;14.66;91.42;101006.50;4970816;28;20545;-78
2023/07/04 02:12:22;;;;;;;24.45;5.90;;;;;;;14.67;91.41;101005.53;4970436;28;20031;-78
2023/07/04 02:14:47;;;;;;;22.90;6.40;;;;;;;14.67;91.23;101014.31;4982754;28;20022;-78
2023/07/04 02:17:12;;;;;;;20.90;5.55;;;;;;;14.68;91.67;101001.91;4989797;28;20045;-78
2023/07/04 02:19:38;;;;;;;21.50;5.07;;;;;;;14.71;91.37;101009.56;4985694;28;20113;-69
2023/07/04 02:22:03;;;;;;;21.88;5.93;;;;;;;14.72;91.30;101008.59;4975822;28;20054;-78
2023/07/04 02:24:28;;;;;;;21.02;5.57;;;;;;;14.73;91.43;100997.03;4972645;28;20787;-69
2023/07/04 02:26:54;;;;;;;28.50;5.93;;;;;;;14.75;91.25;101003.03;4989261;28;20022;-77
2023/07/04 02:29:19;;;;;;;21.45;5.82;;;;;;;14.75;91.12;101010.97;4985005;28;20022;-77
2023/07/04 02:31:46;;;;;;;27.33;6.05;;;;;;;14.76;91.54;101015.28;4970875;28;20380;-78
2023/07/04 02:34:11;;;;;;;22.10;5.78;;;;;;;14.79;92.84;101008.88;4970656;28;20458;-76
2023/07/04 02:36:39;;;;;;;26.73;6.38;;;;;;;14.77;94.08;101011.66;4976759;28;20026;-78
2023/07/04 02:39:05;;;;;;;21.23;5.43;;;;;;;14.78;94.43;101010.69;4993877;28;20018;-69
2023/07/04 02:41:32;;;;;;;23.65;5.78;;;;;;;14.77;95.29;101024.91;4972223;28;20359;-76
2023/07/04 02:43:58;;;;;;;22.20;6.18;;;;;;;14.78;97.25;101031.03;4991092;28;20041;-76
2023/07/04 02:46:24;;;;;;;24.40;6.60;;;;;;;14.73;98.82;101018.22;4993781;28;20026;-69
2023/07/04 02:48:49;;;;;;;25.55;6.68;;;;;;;14.65;99.77;101031.31;4992666;28;20037;-69
2023/07/04 02:51:14;;;;;;;20.95;5.97;;;;;;;14.57;98.34;101013.44;4992269;28;20438;-75
2023/07/04 02:53:40;;;;;;;15.15;4.72;;;;;;;14.45;99.19;101014.53;4989664;28;20049;-74
2023/07/04 02:56:05;;;;;;;15.60;4.80;;;;;;;14.36;98.17;101008.19;4976657;28;20122;-70
2023/07/04 02:58:30;;;;;;;18.77;5.45;;;;;;;14.25;99.87;101018.88;4988705;28;20551;-68
2023/07/04 03:00:57;;;;;;;16.17;4.85;;;;;;;14.13;100.00;101004.06;4988027;28;20023;-68
2023/07/04 03:03:22;;;;;;;19.73;5.32;;;;;;;14.12;100.00;101012.97;4992708;28;20026;-70
2023/07/04 03:05:48;;;;;;;19.70;5.75;;;;;;;14.08;100.00;101016.84;4990038;28;20034;-70
2023/07/04 03:08:13;;;;;;;20.33;6.00;;;;;;;14.05;100.00;101027.69;4985564;28;20088;-68
2023/07/04 03:10:39;;;;;;;17.70;5.68;;;;;;;14.01;100.00;101031.56;4992759;28;20022;-70
2023/07/04 03:13:04;;;;;;;18.00;5.90;;;;;;;14.01;100.00;101021.84;4992431;28;20490;-70
2023/07/04 03:15:29;;;;;;;22.40;6.28;;;;;;;14.00;100.00;101029.88;4977141;28;20033;-75
2023/07/04 03:17:55;;;;;;;21.88;6.63;;;;;;;13.98;100.00;101026.50;4981461;28;20027;-69
2023/07/04 03:20:21;;;;;;;24.83;6.50;;;;;;;13.96;100.00;101031.09;4974050;28;20478;-68
2023/07/04 03:22:46;;;;;;;27.02;8.43;;;;;;;13.95;100.00;101013.56;4981598;28;20037;-74
2023/07/04 03:25:12;;;;;;;18.33;5.60;;;;;;;13.83;100.00;101017.25;4985790;28;20117;-68
2023/07/04 03:27:39;;;;;;;23.88;6.28;;;;;;;13.83;100.00;101025.19;4976367;28;20031;-68
2023/07/04 03:30:09;;;;;;;22.77;6.82;;;;;;;13.78;100.00;101026.41;4988917;28;20121;-68
2023/07/04 03:32:34;;;;;;;22.73;5.90;;;;;;;13.78;100.00;101031.72;4976010;28;20031;-68
2023/07/04 03:35:03;;;;;;;25.92;6.53;;;;;;;13.76;100.00;101028.34;4959789;28;20052;-69
2023/07/04 03:37:29;;;;;;;23.05;6.15;;;;;;;13.69;100.00;101029.84;4992820;28;20194;-68
2023/07/04 03:39:56;;;;;;;23.48;6.75;;;;;;;13.66;100.00;101032.75;4992765;28;20022;-68
2023/07/04 03:42:21;;;;;;;24.17;6.40;;;;;;;13.68;100.00;101030.81;4990809;28;20030;-76
2023/07/04 03:44:47;;;;;;;24.30;6.53;;;;;;;13.61;100.00;101024.38;4979667;28;20372;-76
2023/07/04 03:47:12;;;;;;;24.77;6.53;;;;;;;13.60;100.00;101027.09;4991505;28;20030;-68
2023/07/04 03:49:37;;;;;;;23.63;6.30;;;;;;;13.58;100.00;101029.03;4978585;28;20023;-68
2023/07/04 03:52:03;;;;;;;25.88;6.05;;;;;;;13.58;100.00;101035.16;4953704;28;20115;-69
2023/07/04 03:54:29;;;;;;;26.70;7.03;;;;;;;13.57;100.00;101033.50;4967142;28;20038;-69
2023/07/04 03:56:54;;;;;;;26.35;6.95;;;;;;;13.58;100.00;101029.88;4973064;28;20057;-69
2023/07/04 03:59:19;;;;;;;27.38;6.32;;;;;;;13.57;100.00;101033.50;4990170;28;20058;-69
2023/07/04 04:01:45;;;;;;;22.70;6.85;;;;;;;13.55;100.00;101026.66;4990931;28;20033;-69
2023/07/04 04:04:11;;;;;;;32.53;7.65;;;;;;;13.55;100.00;101031.94;4983100;28;20034;-69
2023/07/04 04:06:36;;;;;;;21.80;5.88;;;;;;;13.51;100.00;101039.28;4959980;28;20369;-68
2023/07/04 04:09:02;;;;;;;26.23;7.03;;;;;;;13.53;100.00;101047.94;4952292;28;20027;-68
2023/07/04 04:11:27;;;;;;;33.42;7.18;;;;;;;13.53;100.00;101041.81;4971467;28;20042;-69
2023/07/04 04:13:53;;;;;;;24.83;6.85;;;;;;;13.58;100.00;101035.16;4979113;28;20105;-75
2023/07/04 04:16:18;;;;;;;23.90;6.55;;;;;;;13.60;100.00;101042.97;4988472;28;20030;-75
2023/07/04 04:18:44;;;;;;;24.95;7.28;;;;;;;13.69;100.00;101031.66;4991591;28;20034;-74
2023/07/04 04:21:09;;;;;;;30.42;7.35;;;;;;;13.80;100.00;101044.81;4992317;28;20022;-75
2023/07/04 04:23:35;;;;;;;27.70;6.07;;;;;;;13.78;100.00;101036.16;4971693;28;20495;-75
2023/07/04 04:26:00;;;;;;;23.75;6.35;;;;;;;13.74;100.00;101043.50;4964371;28;20118;-68
2023/07/04 04:28:26;;;;;;;26.48;6.88;;;;;;;13.71;100.00;101040.28;4974292;28;20054;-68
2023/07/04 04:30:51;;;;;;;28.40;7.35;;;;;;;13.69;100.00;101037.78;4991120;28;20433;-69
2023/07/04 04:33:19;;;;;;;25.90;6.95;;;;;;;13.71;100.00;101043.78;4990628;28;20034;-70
2023/07/04 04:35:46;;;;;;;22.60;6.38;;;;;;;13.67;100.00;101050.28;4980351;28;20177;-75
2023/07/04 04:38:11;;;;;;;29.98;7.13;;;;;;;13.67;100.00;101060.88;4991079;28;20084;-69
2023/07/04 04:40:40;;;;;;;21.65;6.47;;;;;;;13.67;100.00;101055.59;4991168;28;20109;-70
2023/07/04 04:43:12;;;;;;;29.48;6.90;;;;;;;13.67;100.00;101060.88;4963049;28;20530;-70
2023/07/04 04:45:38;;;;;;;;;;;;;;;13.74;100.00;101071.75;4981404;28;20033;-70
2023/07/04 04:48:06;;;;;;;25.60;6.47;;;;;;;13.68;100.00;101067.84;4977439;28;19918;-76
2023/07/04 04:50:32;;;;;;;29.23;7.53;;;;;;;13.69;100.00;101064.22;4978138;28;20415;-70
2023/07/04 04:52:58;;;;;;;25.23;7.07;;;;;;;13.71;100.00;101064.09;4971264;28;20031;-71
2023/07/04 04:55:24;;;;;;;22.38;6.75;;;;;;;13.76;100.00;101061.91;4970085;28;20031;-71
2023/07/04 04:57:49;;;;;;;29.60;7.35;;;;;;;13.78;100.00;101058.16;4976952;28;20068;-70
2023/07/04 05:00:16;;;;;;;23.17;7.00;;;;;;;13.80;100.00;101063.31;4974242;28;20114;-71
2023/07/04 05:02:44;;;;;;;22.85;6.70;;;;;;;13.84;100.00;101066.53;4975110;28;20038;-70
2023/07/04 05:05:11;;;;;;;31.65;7.18;;;;;;;13.86;100.00;101062.78;4989802;28;20053;-71
2023/07/04 05:07:36;;;;;;;23.48;6.32;;;;;;;13.92;100.00;101066.72;4981044;28;20027;-71
2023/07/04 05:10:02;;;;;;;25.52;6.72;;;;;;;13.95;100.00;101074.41;4976274;28;20060;-71
2023/07/04 05:12:28;;;;;;;27.15;7.20;;;;;;;13.98;100.00;101074.13;4989721;28;20030;-71
2023/07/04 05:14:53;;;;;;;25.98;8.10;;;;;;;14.02;100.00;101075.59;4990494;28;20053;-71
2023/07/04 05:17:18;;;;;;;32.22;8.00;;;;;;;14.00;100.00;101077.50;4977418;28;20418;-71
2023/07/04 05:19:48;;;;;;;27.38;7.13;;;;;;;14.00;100.00;101078.34;4971588;28;20110;-71
2023/07/04 05:22:13;;;;;;;25.75;6.90;;;;;;;14.04;100.00;101081.59;4987564;28;20023;-71
2023/07/04 05:24:38;;;;;;;23.83;7.13;;;;;;;14.08;100.00;101075.06;4990484;28;20113;-78
2023/07/04 05:27:05;;;;;;;26.23;7.30;;;;;;;14.14;100.00;101085.13;4981419;28;20035;-71
2023/07/04 05:29:30;;;;;;;27.42;6.60;;;;;;;14.17;100.00;101082.22;4981070;28;20030;-70
2023/07/04 05:31:56;;;;;;;25.02;6.95;;;;;;;14.22;100.00;101085.28;4984332;28;20018;-71
2023/07/04 05:34:21;;;;;;;26.23;6.88;;;;;;;14.26;100.00;101084.06;4969157;28;20113;-70
2023/07/04 05:36:47;;;;;;;24.40;6.78;;;;;;;14.28;100.00;101092.72;4985756;28;20118;-71
2023/07/04 05:39:12;;;;;;;26.38;7.10;;;;;;;14.31;100.00;101087.16;4977460;28;20474;-71
2023/07/04 05:41:38;;;;;;;27.92;7.10;;;;;;;14.35;100.00;101085.06;4978901;28;20026;-68
2023/07/04 05:44:07;;;;;;;28.92;7.00;;;;;;;14.37;100.00;101086.63;4971890;28;20030;-70
2023/07/04 05:46:33;;;;;;;27.77;6.93;;;;;;;14.42;100.00;101088.91;4969009;28;20399;-70
2023/07/04 05:48:59;;;;;;;22.17;6.20;;;;;;;14.46;100.00;101090.34;4970011;28;20038;-71
2023/07/04 05:51:25;;;;;;;25.38;6.95;;;;;;;14.51;100.00;101080.19;4983102;28;20487;-78
2023/07/04 05:53:52;;;;;;;29.42;7.35;;;;;;;14.60;100.00;101082.03;4989164;28;20034;-78
2023/07/04 05:56:24;;;;;;;23.70;6.22;;;;;;;14.67;100.00;101090.28;4977559;28;20031;-78
2023/07/04 05:58:52;;;;;;;26.30;6.78;;;;;;;14.72;100.00;101082.75;4966134;28;20399;-70
2023/07/04 06:01:34;;;;;;;25.45;6.88;;;;;;;14.80;100.00;101082.06;4970133;28;20035;-78
2023/07/04 06:04:01;;;;;;;20.55;6.13;;;;;;;14.86;100.00;101092.16;4969998;28;20031;-78
2023/07/04 06:06:31;;;;;;;26.42;6.97;;;;;;;14.90;100.00;101089.09;4976102;28;20038;-78
2023/07/04 06:08:58;;;;;;;30.38;7.18;;;;;;;14.96;100.00;101091.22;4972129;28;20125;-78
2023/07/04 06:11:29;;;;;;;25.60;5.88;;;;;;;14.97;100.00;101098.19;4972394;28;20018;-78
2023/07/04 06:13:55;;;;;;;26.60;6.70;;;;;;;15.02;100.00;101093.31;4967521;28;20041;-78
2023/07/04 06:16:21;;;;;;;26.30;7.00;;;;;;;15.07;100.00;101100.00;4981144;28;20037;-70
2023/07/04 06:18:47;;;;;;;26.77;6.45;;;;;;;15.13;100.00;101102.13;4973657;28;20035;-70
2023/07/04 06:21:16;;;;;;;23.73;6.78;;;;;;;15.17;100.00;101106.16;4971443;28;20058;-72
2023/07/04 06:23:42;;;;;;;22.05;6.00;;;;;;;15.24;98.17;101099.38;4967983;28;20026;-72
2023/07/04 06:26:10;;;;;;;24.70;6.60;;;;;;;15.27;98.46;101107.03;4981929;28;20042;-68
2023/07/04 06:28:36;;;;;;;20.50;5.88;;;;;;;15.31;97.54;101108.44;4943346;29;20403;-78
2023/07/04 06:31:04;;;;;;;20.30;5.65;;;;;;;15.36;97.56;101108.84;4953714;28;20300;-71
2023/07/04 06:33:29;;;;;;;24.75;6.72;;;;;;;15.42;98.03;101107.47;4969377;28;20023;-71
2023/07/04 06:35:55;;;;;;;23.10;5.20;;;;;;;15.46;94.25;101112.34;4972361;28;20066;-72
2023/07/04 06:38:21;;;;;;;20.17;5.50;;;;;;;15.54;94.54;101109.84;4986468;28;20050;-76
2023/07/04 06:41:05;;;;;;;15.05;4.65;;;;;;;15.63;91.25;101111.72;4976988;28;20768;-71
2023/07/04 06:43:32;;;;;;;20.85;4.70;;;;;;;15.70;93.33;101111.97;4976270;28;20487;-68
2023/07/04 06:45:58;;;;;;;19.10;5.15;;;;;;;15.82;91.48;101115.31;4986150;28;20396;-75
2023/07/04 06:48:25;;;;;;;18.83;5.07;;;;;;;15.87;88.68;101124.53;4973905;28;20030;-77
2023/07/04 06:51:08;;;;;;;19.52;4.50;;;;;;;15.89;86.64;101122.56;4976348;28;20045;-76
2023/07/04 06:53:34;;;;;;;;;;;;;;;15.98;89.11;101129.69;4987659;28;20463;-73
2023/07/04 06:56:15;;;;;;;23.00;5.07;;;;;;;16.05;88.13;101132.63;4974202;28;19956;-77
2023/07/04 06:58:45;;;;;;;18.30;3.90;;;;;;;16.09;86.75;101135.84;4977854;28;20026;-76
2023/07/04 07:01:11;;;;;;;16.63;5.07;;;;;;;16.11;84.45;101145.34;4979715;28;20026;-77
2023/07/04 07:03:36;;;;;;;16.65;4.60;;;;;;;16.15;83.20;101146.72;4974396;28;20027;-77
2023/07/04 07:06:10;;;;;;;18.08;4.55;;;;;;;16.16;80.64;101144.91;4971537;28;20035;-76
2023/07/04 07:08:37;;;;;;;16.13;4.57;;;;;;;16.24;81.36;101140.56;4974815;28;20443;-77
2023/07/04 07:11:09;;;;;;;13.60;4.22;;;;;;;16.42;79.84;101137.19;4974776;28;20058;-76
2023/07/04 07:13:39;;;;;;;;;;;;;;;16.62;83.46;101141.44;4972721;28;20025;-76
2023/07/04 07:16:14;;;;;;;14.18;3.67;;;;;;;16.85;79.66;101139.28;4977022;28;19914;-78
2023/07/04 07:18:41;;;;;;;13.48;3.75;;;;;;;16.97;78.85;101132.78;4974198;28;20038;-79
2023/07/04 07:21:08;;;;;;;17.10;4.43;;;;;;;17.19;76.78;101128.88;4981462;28;20030;-79
2023/07/04 07:23:36;;;;;;;17.50;4.47;;;;;;;17.40;76.97;101129.44;4989958;28;20029;-79
2023/07/04 07:26:04;;;;;;;17.58;3.92;;;;;;;17.63;77.20;101131.69;4991659;28;20035;-70
2023/07/04 07:28:31;;;;;;;12.63;4.13;;;;;;;17.66;71.29;101142.84;4976510;28;20058;-70
2023/07/04 07:31:04;;;;;;;15.15;3.95;;;;;;;17.65;71.62;101153.66;4990536;28;20649;-70
2023/07/04 07:33:34;;;;;;;11.88;3.80;;;;;;;17.76;70.74;101150.78;4979684;28;20037;-70
2023/07/04 07:36:07;;;;;;;11.38;3.83;;;;;;;17.99;72.71;101151.13;4979575;28;20046;-70
2023/07/04 07:38:32;;;;;;;12.93;3.60;;;;;;;18.22;69.27;101151.50;4988222;28;20035;-70
2023/07/04 07:40:58;;;;;;;14.90;4.30;;;;;;;18.08;69.17;101156.38;4986580;28;20030;-69
2023/07/04 07:43:23;;;;;;;14.27;4.18;;;;;;;18.08;65.42;101142.25;4974211;28;20118;-70
2023/07/04 07:45:48;;;;;;;14.88;4.13;;;;;;;18.06;68.56;101161.03;4979506;28;20025;-70
2023/07/04 07:48:14;;;;;;;12.10;3.65;;;;;;;18.04;66.59;101152.38;4991252;28;20027;-69
2023/07/04 07:50:44;;;;;;;14.00;3.88;;;;;;;18.08;66.01;101153.72;4981272;28;20030;-70
2023/07/04 07:53:13;;;;;;;10.55;3.60;;;;;;;18.37;65.91;101171.22;4991517;28;20733;-70
2023/07/04 07:55:38;;;;;;;15.38;3.67;;;;;;;18.61;65.32;101162.56;4981073;28;20038;-80
2023/07/04 07:58:04;;;;;;;13.77;4.07;;;;;;;18.83;62.80;101161.22;4978569;28;20035;-71
2023/07/04 08:00:30;;;;;;;14.23;3.80;;;;;;;18.83;60.87;101153.22;4982123;28;20497;-70
2023/07/04 08:02:55;;;;;;;11.57;3.58;;;;;;;18.82;61.92;101162.22;4979336;28;20117;-70
2023/07/04 08:05:20;;;;;;;13.63;3.67;;;;;;;18.89;62.42;101165.91;4991029;28;20077;-70
2023/07/04 08:07:50;;;;;;;15.18;3.67;;;;;;;19.04;62.72;101175.81;4990613;28;20081;-70
2023/07/04 08:10:16;;;;;;;11.68;3.78;;;;;;;19.33;61.53;101163.91;4991437;28;20077;-71
2023/07/04 08:12:41;;;;;;;10.98;3.95;;;;;;;19.57;61.38;101176.50;4991239;28;20033;-79
2023/07/04 08:15:10;;;;;;;12.77;3.30;;;;;;;19.51;57.66;101177.13;4984596;28;20029;-70
2023/07/04 08:17:36;;;;;;;9.35;2.92;;;;;;;19.65;56.09;101171.19;4990799;28;20030;-80
2023/07/04 08:20:03;;;;;;;8.85;2.90;;;;;;;19.85;56.59;101164.53;4979061;28;20054;-71
2023/07/04 08:22:28;;;;;;;10.65;3.70;;;;;;;19.89;55.84;101157.03;4983757;28;20050;-78
2023/07/04 08:24:54;;;;;;;11.25;3.70;;;;;;;20.03;54.70;101164.41;4986947;28;20442;-78
2023/07/04 08:27:19;;;;;;;12.75;3.60;;;;;;;20.24;53.22;101174.56;4991547;28;20030;-69
2023/07/04 08:29:48;;;;;;;12.40;3.20;;;;;;;20.26;53.71;101169.88;4980791;28;20014;-69
2023/07/04 08:32:13;;;;;;;9.75;3.00;;;;;;;20.16;52.27;101171.91;4991481;28;20073;-70
2023/07/04 08:34:39;;;;;;;8.93;3.15;;;;;;;19.94;51.42;101170.72;4981556;28;20055;-69
2023/07/04 08:37:05;;;;;;;11.90;3.03;;;;;;;20.08;52.79;101155.88;4980944;28;20026;-78
2023/07/04 08:39:30;;;;;;;10.80;3.17;;;;;;;20.17;52.08;101157.53;4991378;28;20029;-69
2023/07/04 08:41:59;;;;;;;12.23;3.00;;;;;;;20.40;51.34;101147.81;4987296;28;20026;-69
2023/07/04 08:44:40;;;;;;;11.60;3.22;;;;;;;20.57;51.85;101149.47;4989415;28;20019;-78
2023/07/04 08:47:09;;;;;;;10.60;2.95;;;;;;;20.78;51.16;101153.41;4991386;28;20030;-78
2023/07/04 08:49:40;;;;;;;10.48;3.10;;;;;;;21.15;49.66;101161.63;4990949;28;20065;-71
2023/07/04 08:52:44;;;;;;;13.43;3.45;;;;;;;21.41;49.37;101152.50;4981531;28;20109;-79
2023/07/04 08:55:12;;;;;;;10.05;2.78;;;;;;;21.41;48.33;101168.56;4939014;28;20167;-78
2023/07/04 08:57:57;;;;;;;11.05;2.38;;;;;;;21.67;49.41;101147.66;4959038;28;20042;-78
2023/07/04 09:00:42;;;;;;;12.90;3.45;;;;;;;21.88;48.51;101166.56;4971272;28;20494;-69
2023/07/04 09:03:25;;;;;;;9.27;2.80;;;;;;;22.07;46.87;101169.81;4975076;28;20410;-77
2023/07/04 09:06:09;;;;;;;12.65;3.45;;;;;;;21.78;46.25;101165.97;4986481;28;20065;-68
2023/07/04 09:08:49;;;;;;;9.05;2.72;;;;;;;21.56;45.79;101169.47;4982159;28;20080;-69
2023/07/04 09:11:16;;;;;;;7.72;2.88;;;;;;;21.53;43.77;101173.31;4976726;28;20041;-68
2023/07/04 09:13:49;;;;;;;9.80;2.92;;;;;;;21.30;45.76;101185.03;4979997;28;20084;-69
2023/07/04 09:16:38;;;;;;;10.18;3.08;;;;;;;21.46;46.77;101182.25;4987341;28;20027;-70
2023/07/04 09:19:10;;;;;;;9.65;3.20;;;;;;;21.47;47.65;101189.28;4975305;28;20038;-69
2023/07/04 09:21:39;;;;;;;11.32;3.33;;;;;;;21.52;46.66;101184.22;4985588;28;20038;-69
2023/07/04 09:24:05;;;;;;;11.50;3.38;;;;;;;21.83;47.20;101179.66;4982285;28;20033;-69
2023/07/04 09:26:44;;;;;;;8.30;2.80;;;;;;;22.25;46.07;101186.38;4974149;28;20035;-69
2023/07/04 09:29:12;;;;;;;8.23;3.00;;;;;;;22.26;43.78;101174.66;4977649;28;20036;-69
2023/07/04 09:31:42;;;;;;;10.70;3.53;;;;;;;22.01;46.42;101182.03;4982516;28;20026;-70
2023/07/04 09:34:20;;;;;;;8.35;3.03;;;;;;;22.01;47.77;101192.75;5000795;28;20026;-69
2023/07/04 09:36:47;;;;;;;10.15;2.80;;;;;;;22.24;45.99;101191.94;4979133;28;20502;-69
2023/07/04 09:39:13;;;;;;;9.75;3.47;;;;;;;22.22;44.95;101197.47;4985640;28;20030;-69
2023/07/04 09:41:40;;;;;;;8.88;2.90;;;;;;;22.33;46.29;101194.34;4978992;28;20065;-69
2023/07/04 09:44:33;;;;;;;12.40;3.17;;;;;;;22.29;46.45;101202.94;4981106;28;20034;-69
2023/07/04 09:47:00;;;;;;;10.40;3.20;;;;;;;21.69;45.31;101198.34;4966668;28;20026;-79
2023/07/04 09:49:28;;;;;;;11.07;3.25;;;;;;;21.58;46.97;101203.09;4976817;28;20023;-79
2023/07/04 09:51:58;;;;;;;10.73;2.92;;;;;;;21.56;47.68;101189.03;4989045;28;20117;-79
2023/07/04 09:54:24;;;;;;;9.82;3.50;;;;;;;21.58;47.14;101192.38;4971273;28;20033;-77
2023/07/04 09:56:49;;;;;;;9.25;2.65;;;;;;;21.65;44.30;101191.69;4974444;28;20110;-78
2023/07/04 09:59:17;;;;;;;9.00;2.80;;;;;;;21.64;42.13;101201.56;4971027;28;20031;-78
2023/07/04 10:01:50;;;;;;;7.88;2.35;;;;;;;21.77;42.40;101196.47;4978361;28;20034;-71
2023/07/04 10:04:34;;;;;;;8.50;2.72;;;;;;;21.77;43.17;101199.13;4989172;28;20033;-69
2023/07/04 10:07:03;;;;;;;10.38;2.45;;;;;;;21.75;43.01;101205.69;4973265;28;20034;-69
2023/07/04 10:09:29;;;;;;;7.47;2.70;;;;;;;21.83;45.25;101194.91;4971054;28;20030;-70
2023/07/04 10:12:11;;;;;;;9.45;2.70;;;;;;;21.93;45.71;101200.03;4982870;28;20414;-70
2023/07/04 10:14:43;;;;;;;9.05;2.85;;;;;;;22.00;45.21;101192.94;4988333;28;20541;-70
2023/07/04 10:17:16;;;;;;;10.88;2.75;;;;;;;21.94;45.69;101202.53;4990475;28;20029;-69
2023/07/04 10:19:45;;;;;;;8.95;2.83;;;;;;;22.01;46.02;101187.38;4988881;28;20101;-68
2023/07/04 10:22:10;;;;;;;7.63;2.80;;;;;;;21.90;45.60;101195.84;4972619;28;20178;-68
2023/07/04 10:24:36;;;;;;;11.55;2.70;;;;;;;21.75;46.44;101187.75;4972157;28;20534;-69
2023/07/04 10:27:06;;;;;;;10.95;2.80;;;;;;;21.93;46.84;101184.78;4990119;28;20036;-68
2023/07/04 10:29:48;;;;;;;13.55;2.75;;;;;;;22.17;45.32;101187.31;4989005;28;20085;-69
2023/07/04 10:32:16;;;;;;;9.48;2.70;;;;;;;22.37;44.06;101192.97;4984857;28;20107;-69
2023/07/04 10:34:44;;;;;;;8.55;2.75;;;;;;;22.27;42.58;101192.41;4989259;28;20042;-69
2023/07/04 10:37:19;;;;;;;7.95;2.63;;;;;;;22.36;42.98;101195.84;4985722;28;20105;-69
2023/07/04 10:39:45;;;;;;;10.15;2.58;;;;;;;22.47;42.09;101198.94;4973655;28;20547;-68
2023/07/04 10:42:21;;;;;;;9.02;2.78;;;;;;;22.57;44.38;101192.47;4977043;28;20126;-69
2023/07/04 10:44:51;;;;;;;10.60;2.55;;;;;;;22.60;43.52;101195.63;4983666;28;20038;-69
2023/07/04 10:47:29;;;;;;;11.80;3.10;;;;;;;22.57;42.74;101197.84;4989626;28;20454;-78
2023/07/04 10:50:01;;;;;;;8.40;2.40;;;;;;;22.47;42.89;101196.25;4977841;28;20114;-69
2023/07/04 10:52:35;;;;;;;10.93;2.70;;;;;;;22.48;42.46;101195.25;4973651;28;20057;-77
2023/07/04 10:55:02;;;;;;;7.13;2.47;;;;;;;22.70;43.97;101192.66;4971213;28;20495;-70
2023/07/04 10:57:42;;;;;;;7.65;2.20;;;;;;;22.75;43.14;101184.88;4966133;28;20031;-68
2023/07/04 11:00:36;;;;;;;7.55;2.38;;;;;;;22.50;43.99;101201.25;4981496;28;20029;-69
2023/07/04 11:03:08;;;;;;;9.88;2.80;;;;;;;22.14;44.44;101189.50;4967183;28;20081;-70
2023/07/04 11:05:47;;;;;;;6.65;2.25;;;;;;;22.17;45.39;101194.50;4972192;28;20026;-69
2023/07/04 11:08:15;;;;;;;9.45;2.25;;;;;;;22.36;43.54;101196.66;4975177;28;20399;-78
2023/07/04 11:10:42;;;;;;;7.50;2.67;;;;;;;22.33;42.39;101202.41;4974624;28;20390;-69
2023/07/04 11:13:14;;;;;;;7.35;2.30;;;;;;;22.48;44.39;101199.78;4972314;28;20023;-69
2023/07/04 11:15:42;;;;;;;6.18;2.20;;;;;;;22.54;43.48;101199.03;4976614;28;20058;-77
2023/07/04 11:18:14;;;;;;;6.35;2.40;;;;;;;22.60;42.62;101200.16;4970077;28;20084;-69
2023/07/04 11:21:16;;;;;;;8.68;2.63;;;;;;;22.63;44.06;101200.59;4972529;28;20486;-70
2023/07/04 11:23:53;;;;;;;7.53;2.42;;;;;;;22.48;42.91;101205.13;4966671;28;20115;-78